Pagina principale
METAR-TAF:

METAR-TAF

Aeroporti :

Aeroporto di Reggio Calabria

Reggio Calabria, Italia

latitudine: 38-04N, longitudine: 015-39E, altezza: 11 m

Osservazione

Il bollettino è stato emesso 29 minuti fa, alle 15:50 UTC
Vento 5 kt da nord
Temperature 13°C
Umidità 51%
Pressione 1022 hPa
Visibilità 10 km o più

METAR: LICR 201550Z AUTO 35005KT 9999 SCT070/// 13/03 Q1022

Ora: 17:19 (16:19 UTC)

Previsione

Il bollettino è stato emesso 5 ore e 19 minuti fa, alle 11:00 UTC
Previsione valida dal 20 alle 12 UTC al 21 alle 12 UTC
Vento 8 kt da sud
Visibilità 10 km o più
Nubi sparse ad un'altezza di 3000 ft
Temporaneamente
dal 20 alle 21 UTC al 21 alle 06 UTC
pioggia

TAF: LICR 201100Z 2012/2112 18008KT 9999 SCT030 TEMPO 2021/2106 RA

Osservazioni e previsioni meteorologiche di più di 4000 aeroporti (messaggi METAR e TAF).

Le stazioni disponibili sono rappresentate dai dischi gialli e rossi sulla carta.

Puntare il mouse per vedere il nome della stazione.

Clicca sopra per visualizzare le osservazioni e previsioni meteorologiche.

Per cambiare la mappa : fare clic sui pulsanti verdi con una croce nera per ingrandire, il pulsante verde con un trattino per diminuire, o sulla freccia verde per le mappe adiacenti.


METAR-TAF: